createdAt,value
2023-04-15T00:00:17.135Z,48.51
2023-04-15T00:01:22.623Z,48.21
2023-04-15T00:02:24.651Z,48.16
2023-04-15T00:03:26.948Z,48.58
2023-04-15T00:04:29.127Z,48.58
2023-04-15T00:05:31.627Z,48.42
2023-04-15T00:06:33.371Z,48.54
2023-04-15T00:07:34.932Z,48.77
2023-04-15T00:08:36.668Z,48.27
2023-04-15T00:09:38.280Z,48.66
2023-04-15T00:10:44.238Z,48.36
2023-04-15T00:11:46.398Z,48.84
2023-04-15T00:12:48.066Z,48.86
2023-04-15T00:13:52.771Z,48.66
2023-04-15T00:14:54.591Z,48.88
2023-04-15T00:15:56.318Z,48.62
2023-04-15T00:16:58.074Z,48.26
2023-04-15T00:18:00.083Z,48.08
2023-04-15T00:19:04.951Z,48.05
2023-04-15T00:20:07.095Z,48.11
2023-04-15T00:21:09.601Z,48.21
2023-04-15T00:22:12.272Z,48.30
2023-04-15T00:23:13.998Z,48.21
2023-04-15T00:24:15.600Z,48.55
2023-04-15T00:25:18.053Z,48.33
2023-04-15T00:26:20.770Z,48.20
2023-04-15T00:27:24.303Z,48.25
2023-04-15T00:28:26.282Z,48.24
2023-04-15T00:29:30.451Z,47.94
2023-04-15T00:30:32.323Z,48.03
2023-04-15T00:31:34.061Z,48.17
2023-04-15T00:32:38.064Z,48.28
2023-04-15T00:33:40.159Z,48.19
2023-04-15T00:34:44.541Z,48.22
2023-04-15T00:35:46.914Z,48.28
2023-04-15T00:36:52.499Z,48.85
2023-04-15T00:37:56.722Z,48.46
2023-04-15T00:38:58.823Z,48.22
2023-04-15T00:40:01.317Z,48.24
2023-04-15T00:41:03.812Z,48.24
2023-04-15T00:42:08.056Z,48.57
2023-04-15T00:43:09.940Z,48.45
2023-04-15T00:44:11.668Z,48.68
2023-04-15T00:45:13.342Z,48.98
2023-04-15T00:46:17.711Z,48.84
2023-04-15T00:47:22.557Z,48.88
2023-04-15T00:48:24.824Z,48.45
2023-04-15T00:49:27.219Z,48.71
2023-04-15T00:50:29.016Z,48.70
2023-04-15T00:51:33.563Z,48.22
2023-04-15T00:52:35.279Z,48.13
2023-04-15T00:53:37.013Z,48.56
2023-04-15T00:54:44.651Z,47.98
2023-04-15T00:55:46.421Z,48.03
2023-04-15T00:56:50.345Z,47.97
2023-04-15T00:57:52.671Z,47.90
2023-04-15T00:58:54.487Z,47.91
2023-04-15T00:59:56.877Z,47.97
2023-04-15T01:00:59.066Z,47.78
2023-04-15T01:02:03.474Z,48.33
2023-04-15T01:03:07.837Z,48.26
2023-04-15T01:04:12.358Z,48.37
2023-04-15T01:05:17.599Z,48.24
2023-04-15T01:06:19.270Z,48.16
2023-04-15T01:07:20.944Z,48.58
2023-04-15T01:08:22.494Z,48.51
2023-04-15T01:09:24.398Z,48.43
2023-04-15T01:10:26.156Z,48.83
2023-04-15T01:11:28.068Z,49.12
2023-04-15T01:12:34.365Z,49.04
2023-04-15T01:13:36.788Z,49.12
2023-04-15T01:14:38.698Z,49.22
2023-04-15T01:15:44.658Z,48.95
2023-04-15T01:16:47.003Z,49.26
2023-04-15T01:17:49.027Z,49.23
2023-04-15T01:18:50.861Z,48.94
2023-04-15T01:19:57.892Z,48.95
2023-04-15T01:21:01.883Z,49.25
2023-04-15T01:22:04.158Z,48.86
2023-04-15T01:23:06.285Z,48.71
2023-04-15T01:24:10.426Z,48.89
2023-04-15T01:25:17.682Z,48.69
2023-04-15T01:26:19.880Z,49.00
2023-04-15T01:27:22.426Z,48.76
2023-04-15T01:28:27.212Z,48.88
2023-04-15T01:29:29.526Z,48.74
2023-04-15T01:30:34.760Z,48.53
2023-04-15T01:31:39.177Z,48.74
2023-04-15T01:32:41.057Z,48.47
2023-04-15T01:33:43.350Z,48.65
2023-04-15T01:34:45.100Z,48.60
2023-04-15T01:35:48.804Z,49.00
2023-04-15T01:36:51.263Z,48.80
2023-04-15T01:37:55.695Z,48.51
2023-04-15T01:38:58.507Z,48.61
2023-04-15T01:40:03.387Z,48.58
2023-04-15T01:41:07.624Z,48.40
2023-04-15T01:42:09.859Z,48.70
2023-04-15T01:43:11.519Z,48.86
2023-04-15T01:44:13.152Z,48.78
2023-04-15T01:45:14.908Z,48.85
2023-04-15T01:46:16.517Z,49.25
2023-04-15T01:47:20.785Z,49.22
2023-04-15T01:48:23.326Z,48.99
2023-04-15T01:49:25.017Z,48.97
2023-04-15T01:50:29.014Z,48.97
2023-04-15T01:51:30.590Z,49.06
2023-04-15T01:52:32.334Z,48.84
2023-04-15T01:53:34.391Z,48.85
2023-04-15T01:54:37.161Z,48.90
2023-04-15T01:55:39.177Z,49.26
2023-04-15T01:56:42.254Z,49.43
2023-04-15T01:57:44.675Z,49.83
2023-04-15T01:58:46.464Z,49.75
2023-04-15T01:59:48.446Z,49.59
2023-04-15T02:00:50.144Z,49.88
2023-04-15T02:01:52.386Z,49.62
2023-04-15T02:02:55.515Z,49.41
2023-04-15T02:03:59.869Z,49.66
2023-04-15T02:05:01.819Z,49.79
2023-04-15T02:06:06.250Z,49.91
2023-04-15T02:07:08.530Z,49.76
2023-04-15T02:08:10.520Z,49.52
2023-04-15T02:09:13.526Z,49.52
2023-04-15T02:10:16.656Z,49.64
2023-04-15T02:11:18.412Z,49.22
2023-04-15T02:12:21.185Z,49.14
2023-04-15T02:13:25.819Z,49.18
2023-04-15T02:14:27.491Z,49.64
2023-04-15T02:15:31.976Z,49.33
2023-04-15T02:16:34.021Z,49.52
2023-04-15T02:17:39.253Z,49.54
2023-04-15T02:18:43.082Z,49.49
2023-04-15T02:19:44.891Z,49.48
2023-04-15T02:20:47.175Z,49.64
2023-04-15T02:21:48.848Z,49.63
2023-04-15T02:22:52.786Z,49.62
2023-04-15T02:23:54.457Z,49.73
2023-04-15T02:24:58.535Z,49.77
2023-04-15T02:26:00.374Z,49.32
2023-04-15T02:27:02.158Z,49.74
2023-04-15T02:28:03.999Z,49.49
2023-04-15T02:29:05.852Z,49.38
2023-04-15T02:30:09.317Z,49.50
2023-04-15T02:31:10.978Z,49.75
2023-04-15T02:32:17.742Z,49.45
2023-04-15T02:33:19.384Z,49.64
2023-04-15T02:34:23.096Z,49.55
2023-04-15T02:35:25.898Z,49.82
2023-04-15T02:36:29.812Z,49.93
2023-04-15T02:37:40.481Z,49.56
2023-04-15T02:38:43.932Z,49.82
2023-04-15T02:39:47.455Z,49.78
2023-04-15T02:40:51.026Z,50.04
2023-04-15T02:41:52.796Z,50.10
2023-04-15T02:42:54.377Z,50.75
2023-04-15T02:43:57.096Z,50.37
2023-04-15T02:44:59.355Z,50.37
2023-04-15T02:46:06.233Z,50.44
2023-04-15T02:47:07.965Z,50.45
2023-04-15T02:48:09.854Z,50.98
2023-04-15T02:49:11.620Z,50.78
2023-04-15T02:50:13.445Z,51.24
2023-04-15T02:51:20.072Z,50.98
2023-04-15T02:52:21.929Z,51.03
2023-04-15T02:53:23.598Z,50.87
2023-04-15T02:54:26.200Z,50.95
2023-04-15T02:55:28.150Z,51.32
2023-04-15T02:56:30.900Z,51.43
2023-04-15T02:57:32.606Z,51.41
2023-04-15T02:58:40.709Z,51.43
2023-04-15T02:59:42.461Z,51.90
2023-04-15T03:00:44.033Z,51.97
2023-04-15T03:01:46.039Z,51.82
2023-04-15T03:04:17.546Z,51.69
2023-04-15T03:05:19.236Z,52.20
2023-04-15T03:06:24.766Z,52.32
2023-04-15T03:07:26.614Z,52.24
2023-04-15T03:08:31.488Z,52.68
2023-04-15T03:09:33.267Z,52.42
2023-04-15T03:10:37.120Z,52.45
2023-04-15T03:11:40.776Z,52.73
2023-04-15T03:12:44.034Z,52.50
2023-04-15T03:13:50.607Z,52.72
2023-04-15T03:15:02.358Z,52.83
2023-04-15T03:16:10.567Z,52.61
2023-04-15T03:17:12.412Z,52.89
2023-04-15T03:18:14.143Z,53.28
2023-04-15T03:19:16.676Z,52.80
2023-04-15T03:20:19.719Z,52.92
2023-04-15T03:21:23.912Z,52.84
2023-04-15T03:22:26.543Z,53.18
2023-04-15T03:23:34.711Z,53.37
2023-04-15T03:24:37.240Z,53.28
2023-04-15T03:25:38.945Z,53.24
2023-04-15T03:26:44.471Z,53.26
2023-04-15T03:27:52.276Z,53.55
2023-04-15T03:28:56.787Z,53.60
2023-04-15T03:29:58.702Z,53.75
2023-04-15T03:31:06.502Z,53.77
2023-04-15T03:32:08.223Z,53.57
2023-04-15T03:33:09.821Z,54.01
2023-04-15T03:34:12.561Z,53.90
2023-04-15T03:35:16.683Z,53.61
2023-04-15T03:36:18.332Z,53.75
2023-04-15T03:37:19.996Z,53.63
2023-04-15T03:38:23.873Z,54.04
2023-04-15T03:39:25.730Z,53.56
2023-04-15T03:40:27.282Z,54.07
2023-04-15T03:41:28.975Z,53.61
2023-04-15T03:42:30.627Z,53.81
2023-04-15T03:43:34.515Z,53.86
2023-04-15T03:44:36.212Z,54.15
2023-04-15T03:45:38.149Z,54.18
2023-04-15T03:46:42.533Z,54.37
2023-04-15T03:47:46.646Z,54.22
2023-04-15T03:48:48.808Z,54.14
2023-04-15T03:49:50.561Z,54.09
2023-04-15T03:50:54.392Z,54.20
2023-04-15T03:51:56.432Z,54.09
2023-04-15T03:52:58.040Z,54.39
2023-04-15T03:53:59.711Z,54.56
2023-04-15T03:55:01.652Z,55.12
2023-04-15T03:56:03.426Z,54.67
2023-04-15T03:57:05.095Z,54.62
2023-04-15T03:58:07.027Z,54.23
2023-04-15T03:59:08.956Z,54.35
2023-04-15T04:00:10.860Z,54.41
2023-04-15T04:01:16.610Z,54.55
2023-04-15T04:02:18.401Z,54.38
2023-04-15T04:03:22.690Z,54.17
2023-04-15T04:04:24.706Z,54.28
2023-04-15T04:05:26.508Z,54.62
2023-04-15T04:06:28.121Z,54.77
2023-04-15T04:07:30.303Z,54.34
2023-04-15T04:08:31.959Z,54.43
2023-04-15T04:09:33.499Z,54.58
2023-04-15T04:10:35.295Z,54.30
2023-04-15T04:11:37.615Z,54.49
2023-04-15T04:12:39.329Z,54.43
2023-04-15T04:13:41.546Z,54.45
2023-04-15T04:14:43.286Z,54.63
2023-04-15T04:15:44.873Z,54.43
2023-04-15T04:16:46.754Z,54.30
2023-04-15T04:17:48.603Z,54.30
2023-04-15T04:18:52.544Z,54.33
2023-04-15T04:19:54.195Z,54.35
2023-04-15T04:20:57.953Z,54.20
2023-04-15T04:21:59.689Z,54.18
2023-04-15T04:23:01.328Z,54.58
2023-04-15T04:24:02.999Z,54.90
2023-04-15T04:25:05.791Z,54.48
2023-04-15T04:26:07.427Z,54.51
2023-04-15T04:27:09.044Z,54.65
2023-04-15T04:28:11.621Z,55.18
2023-04-15T04:29:13.254Z,54.74
2023-04-15T04:32:28.510Z,54.21
2023-04-15T04:33:30.076Z,54.91
2023-04-15T04:34:32.538Z,54.67
2023-04-15T04:35:35.115Z,54.79
2023-04-15T04:36:39.183Z,55.19
2023-04-15T04:37:42.982Z,55.30
2023-04-15T04:38:44.694Z,55.29
2023-04-15T04:39:46.670Z,55.48
2023-04-15T04:40:50.788Z,55.53
2023-04-15T04:41:52.669Z,55.75
2023-04-15T04:42:54.305Z,56.03
2023-04-15T04:43:56.341Z,55.73
2023-04-15T04:44:58.136Z,55.42
2023-04-15T04:46:00.149Z,55.28
2023-04-15T04:47:01.923Z,55.26
2023-04-15T04:48:07.137Z,55.55
2023-04-15T04:49:08.952Z,55.23
2023-04-15T04:50:10.867Z,55.71
2023-04-15T04:51:15.008Z,55.46
2023-04-15T04:52:16.706Z,55.23
2023-04-15T04:53:18.274Z,55.50
2023-04-15T04:54:19.946Z,55.28
2023-04-15T04:55:21.548Z,55.38
2023-04-15T04:56:23.207Z,55.12
2023-04-15T04:57:27.279Z,55.46
2023-04-15T04:58:28.892Z,55.37
2023-04-15T04:59:30.770Z,55.20
2023-04-15T05:00:32.536Z,54.86
2023-04-15T05:01:36.564Z,55.04
2023-04-15T05:02:42.509Z,55.08
2023-04-15T05:03:44.451Z,54.87
2023-04-15T05:04:46.384Z,55.20
2023-04-15T05:05:49.344Z,54.98
2023-04-15T05:06:51.023Z,54.98
2023-04-15T05:07:56.432Z,54.83
2023-04-15T05:08:58.131Z,55.07
2023-04-15T05:09:59.739Z,55.03
2023-04-15T05:11:01.485Z,54.92
2023-04-15T05:12:04.439Z,55.61
2023-04-15T05:13:06.089Z,55.27
2023-04-15T05:14:12.602Z,55.23
2023-04-15T05:15:14.337Z,55.60
2023-04-15T05:16:16.026Z,55.39
2023-04-15T05:17:22.542Z,55.39
2023-04-15T05:18:24.454Z,55.80
2023-04-15T05:19:26.153Z,55.61
2023-04-15T05:20:29.943Z,55.28
2023-04-15T05:21:32.095Z,55.31
2023-04-15T05:22:33.828Z,55.23
2023-04-15T05:23:35.530Z,55.65
2023-04-15T05:24:37.205Z,55.39
2023-04-15T05:25:38.852Z,55.45
2023-04-15T05:26:43.080Z,55.34
2023-04-15T05:27:47.155Z,55.56
2023-04-15T05:28:51.016Z,55.34
2023-04-15T05:29:55.103Z,55.58
2023-04-15T05:30:56.977Z,55.45
2023-04-15T05:32:01.298Z,55.38
2023-04-15T05:33:06.789Z,55.31
2023-04-15T05:34:08.720Z,55.58
2023-04-15T05:35:10.661Z,55.69
2023-04-15T05:36:12.688Z,55.47
2023-04-15T05:37:14.444Z,55.67
2023-04-15T05:38:16.160Z,56.25
2023-04-15T05:39:17.858Z,55.93
2023-04-15T05:40:20.099Z,55.99
2023-04-15T05:41:21.852Z,55.90
2023-04-15T05:42:23.516Z,55.77
2023-04-15T05:43:25.518Z,55.80
2023-04-15T05:44:27.340Z,55.57
2023-04-15T05:45:29.010Z,55.51
2023-04-15T05:46:30.998Z,55.68
2023-04-15T05:47:32.798Z,55.73
2023-04-15T05:48:34.566Z,55.58
2023-04-15T05:49:36.486Z,55.53
2023-04-15T05:50:43.084Z,55.54
2023-04-15T05:51:47.241Z,55.59
2023-04-15T05:52:49.007Z,55.26
2023-04-15T05:53:51.239Z,55.18
2023-04-15T05:54:52.965Z,55.16
2023-04-15T05:55:54.530Z,55.31
2023-04-15T05:56:57.587Z,55.16
2023-04-15T05:58:01.913Z,55.18
2023-04-15T05:59:03.916Z,54.81
2023-04-15T06:00:06.419Z,55.00
2023-04-15T06:01:13.825Z,55.00
2023-04-15T06:02:15.603Z,55.00
2023-04-15T06:03:19.749Z,55.11
2023-04-15T06:04:24.168Z,54.86
2023-04-15T06:05:26.035Z,54.69
2023-04-15T06:06:27.593Z,54.91
2023-04-15T06:07:29.331Z,55.04
2023-04-15T06:08:31.231Z,54.85
2023-04-15T06:09:33.150Z,54.77
2023-04-15T06:10:36.718Z,54.56
2023-04-15T06:11:38.605Z,55.01
2023-04-15T06:12:40.172Z,55.30
2023-04-15T06:13:41.806Z,54.94
2023-04-15T06:14:43.447Z,54.77
2023-04-15T06:15:47.462Z,54.57
2023-04-15T06:16:51.490Z,54.59
2023-04-15T06:17:53.172Z,54.57
2023-04-15T06:18:54.853Z,54.54
2023-04-15T06:19:56.469Z,54.32
2023-04-15T06:20:58.234Z,54.09
2023-04-15T06:21:59.816Z,54.15
2023-04-15T06:23:01.459Z,54.12
2023-04-15T06:24:03.767Z,53.90
2023-04-15T06:25:08.159Z,54.06
2023-04-15T06:26:09.863Z,54.00
2023-04-15T06:27:11.464Z,54.01
2023-04-15T06:28:13.227Z,53.69
2023-04-15T06:29:14.788Z,53.91
2023-04-15T06:30:16.578Z,54.23
2023-04-15T06:31:18.155Z,53.86
2023-04-15T06:32:19.798Z,53.61
2023-04-15T06:33:23.534Z,53.97
2023-04-15T06:34:25.655Z,53.93
2023-04-15T06:35:27.619Z,53.90
2023-04-15T06:36:32.467Z,54.31
2023-04-15T06:37:34.202Z,54.24
2023-04-15T06:38:38.178Z,54.21
2023-04-15T06:39:40.246Z,53.78
2023-04-15T06:40:42.325Z,53.45
2023-04-15T06:41:43.990Z,53.51
2023-04-15T06:42:47.195Z,53.70
2023-04-15T06:43:52.940Z,53.58
2023-04-15T06:44:54.574Z,53.20
2023-04-15T06:45:58.834Z,53.26
2023-04-15T06:47:00.687Z,53.46
2023-04-15T06:48:02.405Z,53.32
2023-04-15T06:49:08.604Z,52.87
2023-04-15T06:50:12.902Z,53.26
2023-04-15T06:51:14.538Z,53.71
2023-04-15T06:52:16.810Z,53.35
2023-04-15T06:53:18.920Z,53.49
2023-04-15T06:54:20.630Z,53.27
2023-04-15T06:55:22.284Z,53.20
2023-04-15T06:56:24.042Z,53.17
2023-04-15T06:57:25.725Z,53.62
2023-04-15T06:58:27.567Z,53.35
2023-04-15T06:59:29.486Z,53.45
2023-04-15T07:00:31.275Z,53.40
2023-04-15T07:01:33.076Z,53.17
2023-04-15T07:02:37.177Z,52.69
2023-04-15T07:03:38.894Z,52.68
2023-04-15T07:04:40.902Z,52.69
2023-04-15T07:05:45.059Z,52.52
2023-04-15T07:06:46.730Z,52.36
2023-04-15T07:07:48.335Z,52.33
2023-04-15T07:08:50.365Z,52.10
2023-04-15T07:09:53.823Z,52.43
2023-04-15T07:10:55.515Z,52.05
2023-04-15T07:11:57.033Z,52.63
2023-04-15T07:12:58.710Z,52.61
2023-04-15T07:14:01.391Z,52.60
2023-04-15T07:15:03.716Z,52.62
2023-04-15T07:16:05.811Z,52.67
2023-04-15T07:17:07.688Z,52.34
2023-04-15T07:18:09.816Z,52.82
2023-04-15T07:19:11.923Z,53.20
2023-04-15T07:20:14.013Z,52.68
2023-04-15T07:21:15.773Z,52.29
2023-04-15T07:22:17.452Z,52.27
2023-04-15T07:23:19.101Z,52.00
2023-04-15T07:24:20.780Z,51.54
2023-04-15T07:25:22.390Z,51.44
2023-04-15T07:26:24.651Z,51.05
2023-04-15T07:27:27.141Z,51.16
2023-04-15T07:28:29.067Z,51.38
2023-04-15T07:29:30.630Z,51.54
2023-04-15T07:30:32.326Z,51.21
2023-04-15T07:31:33.991Z,51.48
2023-04-15T07:32:36.518Z,51.58
2023-04-15T07:33:38.224Z,50.97
2023-04-15T07:34:40.060Z,51.21
2023-04-15T07:35:41.776Z,50.93
2023-04-15T07:36:43.444Z,51.01
2023-04-15T07:37:45.240Z,50.90
2023-04-15T07:38:46.882Z,50.94
2023-04-15T07:39:49.052Z,50.79
2023-04-15T07:40:50.850Z,50.48
2023-04-15T07:41:52.386Z,50.75
2023-04-15T07:42:54.406Z,50.78
2023-04-15T07:43:56.078Z,50.22
2023-04-15T07:44:58.042Z,50.49
2023-04-15T07:46:00.145Z,50.14
2023-04-15T07:47:03.446Z,49.75
2023-04-15T07:48:06.724Z,49.64
2023-04-15T07:49:08.698Z,49.73
2023-04-15T07:50:11.551Z,49.61
2023-04-15T07:51:15.665Z,49.42
2023-04-15T07:52:17.462Z,49.21
2023-04-15T07:53:19.163Z,49.52
2023-04-15T07:54:20.960Z,48.96
2023-04-15T07:55:23.424Z,48.89
2023-04-15T07:56:26.511Z,49.24
2023-04-15T07:57:28.187Z,49.20
2023-04-15T07:58:29.884Z,49.46
2023-04-15T07:59:33.496Z,49.22
2023-04-15T08:00:35.197Z,49.07
2023-04-15T08:01:37.735Z,49.12
2023-04-15T08:02:40.669Z,49.10
2023-04-15T08:03:43.173Z,49.42
2023-04-15T08:04:45.344Z,49.75
2023-04-15T08:05:47.545Z,50.19
2023-04-15T08:06:50.393Z,49.82
2023-04-15T08:07:52.120Z,49.55
2023-04-15T08:08:54.944Z,50.03
2023-04-15T08:09:58.811Z,50.38
2023-04-15T08:11:00.689Z,50.18
2023-04-15T08:12:02.601Z,50.97
2023-04-15T08:13:04.176Z,51.37
2023-04-15T08:14:05.878Z,50.36
2023-04-15T08:15:08.448Z,49.79
2023-04-15T08:16:24.473Z,49.92
2023-04-15T08:17:26.364Z,50.24
2023-04-15T08:18:30.214Z,50.43
2023-04-15T08:19:34.774Z,50.63
2023-04-15T08:20:37.076Z,50.55
2023-04-15T08:21:38.961Z,50.69
2023-04-15T08:22:42.956Z,50.54
2023-04-15T08:23:45.031Z,50.84
2023-04-15T08:24:46.723Z,50.47
2023-04-15T08:25:48.469Z,50.93
2023-04-15T08:26:50.879Z,50.93
2023-04-15T08:27:52.462Z,51.04
2023-04-15T08:28:59.120Z,51.08
2023-04-15T08:30:05.093Z,50.59
2023-04-15T08:31:09.871Z,51.04
2023-04-15T08:32:13.780Z,50.98
2023-04-15T08:33:15.267Z,50.77
2023-04-15T08:34:18.201Z,50.75
2023-04-15T08:35:22.264Z,50.92
2023-04-15T08:36:24.029Z,51.81
2023-04-15T08:37:26.717Z,51.57
2023-04-15T08:38:28.411Z,51.92
2023-04-15T08:39:30.066Z,51.76
2023-04-15T08:40:42.256Z,51.59
2023-04-15T08:41:48.119Z,51.75
2023-04-15T08:42:53.298Z,51.21
2023-04-15T08:43:58.739Z,51.53
2023-04-15T08:45:03.440Z,51.50
2023-04-15T08:46:11.772Z,51.40
2023-04-15T08:47:14.972Z,51.37
2023-04-15T08:48:17.344Z,51.53
2023-04-15T08:49:21.495Z,51.62
2023-04-15T08:50:28.250Z,51.50
2023-04-15T08:51:34.163Z,51.46
2023-04-15T08:52:38.461Z,51.71
2023-04-15T08:53:40.277Z,51.68
2023-04-15T08:54:42.103Z,51.51
2023-04-15T08:55:46.137Z,51.16
2023-04-15T08:56:48.873Z,51.11
2023-04-15T08:57:51.660Z,50.91
2023-04-15T08:58:53.570Z,51.24
2023-04-15T08:59:58.710Z,51.43
2023-04-15T09:01:01.560Z,51.23
2023-04-15T09:02:03.929Z,51.00
2023-04-15T09:03:09.283Z,50.74
2023-04-15T09:04:12.479Z,51.39
2023-04-15T09:05:14.365Z,51.10
2023-04-15T09:06:18.438Z,51.24
2023-04-15T09:07:20.029Z,51.33
2023-04-15T09:08:26.775Z,50.98
2023-04-15T09:09:29.081Z,50.83
2023-04-15T09:10:31.787Z,50.37
2023-04-15T09:11:34.456Z,49.83
2023-04-15T09:12:36.916Z,50.27
2023-04-15T09:13:38.773Z,49.92
2023-04-15T09:14:40.669Z,50.40
2023-04-15T09:15:43.023Z,50.53
2023-04-15T09:17:02.016Z,50.73
2023-04-15T09:18:04.234Z,51.09
2023-04-15T09:19:24.655Z,50.58
2023-04-15T09:20:26.411Z,50.13
2023-04-15T09:21:29.553Z,50.30
2023-04-15T09:22:34.311Z,49.36
2023-04-15T09:23:36.966Z,49.17
2023-04-15T09:24:42.342Z,49.28
2023-04-15T09:25:46.676Z,49.64
2023-04-15T09:26:52.147Z,49.09
2023-04-15T09:27:59.200Z,49.09
2023-04-15T09:29:06.717Z,47.92
2023-04-15T09:30:09.444Z,48.40
2023-04-15T09:31:11.256Z,48.72
2023-04-15T09:32:16.528Z,48.61
2023-04-15T09:33:18.253Z,48.58
2023-04-15T09:34:19.951Z,49.05
2023-04-15T09:35:26.539Z,48.24
2023-04-15T09:36:31.583Z,47.43
2023-04-15T09:37:36.834Z,47.51
2023-04-15T09:38:56.280Z,48.01
2023-04-15T09:39:57.903Z,48.04
2023-04-15T09:41:00.034Z,48.04
2023-04-15T09:42:08.151Z,47.71
2023-04-15T09:43:13.112Z,47.77
2023-04-15T09:44:27.199Z,47.61
2023-04-15T09:45:32.084Z,47.67
2023-04-15T09:46:44.321Z,47.49
2023-04-15T09:47:46.004Z,47.43
2023-04-15T09:49:07.103Z,47.37
2023-04-15T09:50:09.331Z,48.11
2023-04-15T09:51:11.029Z,48.08
2023-04-15T09:52:13.689Z,47.51
2023-04-15T09:53:19.611Z,47.60
2023-04-15T09:54:21.700Z,47.11
2023-04-15T09:55:23.400Z,46.96
2023-04-15T09:56:34.759Z,46.81
2023-04-15T09:57:37.410Z,46.59
2023-04-15T09:58:39.355Z,46.37
2023-04-15T09:59:41.468Z,46.40
2023-04-15T10:00:48.298Z,46.09
2023-04-15T10:01:50.152Z,46.21
2023-04-15T10:02:54.452Z,46.66
2023-04-15T10:03:57.922Z,46.37
2023-04-15T10:05:01.343Z,46.05
2023-04-15T10:06:04.133Z,46.21
2023-04-15T10:07:09.541Z,46.46
2023-04-15T10:08:12.468Z,46.68
2023-04-15T10:09:14.124Z,46.58
2023-04-15T10:10:16.970Z,46.39
2023-04-15T10:11:23.289Z,46.59
2023-04-15T10:12:27.025Z,46.51
2023-04-15T10:13:38.204Z,46.48
2023-04-15T10:14:41.489Z,46.70
2023-04-15T10:15:51.691Z,46.94
2023-04-15T10:16:56.561Z,47.03
2023-04-15T10:18:01.373Z,47.44
2023-04-15T10:19:04.661Z,46.90
2023-04-15T10:20:07.624Z,46.81
2023-04-15T10:21:10.233Z,46.85
2023-04-15T10:22:14.909Z,47.18
2023-04-15T10:23:18.958Z,46.79
2023-04-15T10:24:21.651Z,46.60
2023-04-15T10:25:25.118Z,46.07
2023-04-15T10:26:27.090Z,46.60
2023-04-15T10:27:29.231Z,46.13
2023-04-15T10:28:31.031Z,45.63
2023-04-15T10:29:35.149Z,45.36
2023-04-15T10:30:37.133Z,45.61
2023-04-15T10:31:41.533Z,45.23
2023-04-15T10:32:43.791Z,45.40
2023-04-15T10:33:48.764Z,45.04
2023-04-15T10:34:53.882Z,45.36
2023-04-15T10:35:56.700Z,45.97
2023-04-15T10:37:03.470Z,45.59
2023-04-15T10:38:34.115Z,45.49
2023-04-15T10:39:43.387Z,46.13
2023-04-15T10:40:45.774Z,46.67
2023-04-15T10:42:15.789Z,46.54
2023-04-15T10:43:29.076Z,45.74
2023-04-15T10:44:31.080Z,45.31
2023-04-15T10:45:36.617Z,45.65
2023-04-15T10:46:40.611Z,45.44
2023-04-15T10:47:43.960Z,45.78
2023-04-15T10:48:53.517Z,45.78
2023-04-15T10:49:59.538Z,46.38
2023-04-15T10:51:05.098Z,46.31
2023-04-15T10:52:09.091Z,46.72
2023-04-15T10:53:11.118Z,46.66
2023-04-15T10:54:24.815Z,46.43
2023-04-15T10:55:31.611Z,47.08
2023-04-15T10:56:33.297Z,46.74
2023-04-15T10:57:36.312Z,47.37
2023-04-15T10:58:44.231Z,47.35
2023-04-15T11:00:11.315Z,47.66
2023-04-15T11:01:15.329Z,47.73
2023-04-15T11:02:17.135Z,47.64
2023-04-15T11:03:37.144Z,47.62
2023-04-15T11:04:56.259Z,46.87
2023-04-15T11:05:58.313Z,46.82
2023-04-15T11:07:06.654Z,46.74
2023-04-15T11:08:09.748Z,46.00
2023-04-15T11:09:32.252Z,46.65
2023-04-15T11:10:33.790Z,46.89
2023-04-15T11:12:10.899Z,46.46
2023-04-15T11:13:12.533Z,47.31
2023-04-15T11:14:17.102Z,47.22
2023-04-15T11:15:31.086Z,47.13
2023-04-15T11:16:45.026Z,47.75
2023-04-15T11:17:46.901Z,48.10
2023-04-15T11:18:56.075Z,47.70
2023-04-15T11:19:58.561Z,47.83
2023-04-15T11:21:03.626Z,47.71
2023-04-15T11:22:10.070Z,47.66
2023-04-15T11:23:15.554Z,47.46
2023-04-15T11:24:27.159Z,48.03
2023-04-15T11:25:32.387Z,48.53
2023-04-15T11:26:34.292Z,47.70
2023-04-15T11:27:35.871Z,47.62
2023-04-15T11:28:40.154Z,47.18
2023-04-15T11:29:41.952Z,46.87
2023-04-15T11:30:43.846Z,46.94
2023-04-15T11:31:50.440Z,46.79
2023-04-15T11:32:54.263Z,46.58
2023-04-15T11:34:01.427Z,46.90
2023-04-15T11:35:03.381Z,46.93
2023-04-15T11:36:07.618Z,46.50
2023-04-15T11:37:10.243Z,46.64
2023-04-15T11:38:16.762Z,46.80
2023-04-15T11:39:18.358Z,46.94
2023-04-15T11:40:29.787Z,47.71
2023-04-15T11:41:31.659Z,46.95
2023-04-15T11:42:43.104Z,46.52
2023-04-15T11:43:51.678Z,46.90
2023-04-15T11:45:12.015Z,46.46
2023-04-15T11:46:13.684Z,44.91
2023-04-15T11:47:24.627Z,45.98
2023-04-15T11:48:34.907Z,46.37
2023-04-15T11:49:40.191Z,46.75
2023-04-15T11:50:41.856Z,46.85
2023-04-15T11:51:43.360Z,47.02
2023-04-15T11:53:06.258Z,46.21
2023-04-15T11:54:09.484Z,46.22
2023-04-15T11:55:11.356Z,46.61
2023-04-15T11:56:26.261Z,46.05
2023-04-15T11:57:37.123Z,46.02
2023-04-15T11:58:39.455Z,45.28
2023-04-15T11:59:46.027Z,45.77
2023-04-15T12:00:53.081Z,45.78
2023-04-15T12:01:56.241Z,46.39
2023-04-15T12:03:13.521Z,46.63
2023-04-15T12:04:25.217Z,47.04
2023-04-15T12:05:27.565Z,47.54
2023-04-15T12:06:35.267Z,46.46
2023-04-15T12:08:09.333Z,47.34
2023-04-15T12:09:15.455Z,46.98
2023-04-15T12:10:17.738Z,46.89
2023-04-15T12:11:44.341Z,45.74
2023-04-15T12:12:50.436Z,46.31
2023-04-15T12:13:57.738Z,46.14
2023-04-15T12:15:01.921Z,46.29
2023-04-15T12:16:03.868Z,46.38
2023-04-15T12:17:06.626Z,46.09
2023-04-15T12:18:17.546Z,45.84
2023-04-15T12:20:09.532Z,45.19
2023-04-15T12:21:11.580Z,46.09
2023-04-15T12:22:15.514Z,45.29
2023-04-15T12:23:20.673Z,45.16
2023-04-15T12:24:24.792Z,45.39
2023-04-15T12:25:35.637Z,45.60
2023-04-15T12:26:53.666Z,45.58
2023-04-15T12:27:56.223Z,45.56
2023-04-15T12:29:02.415Z,45.14
2023-04-15T12:30:08.171Z,45.00
2023-04-15T12:31:11.690Z,45.48
2023-04-15T12:32:15.163Z,45.16
2023-04-15T12:33:19.950Z,45.24
2023-04-15T12:34:52.242Z,45.35
2023-04-15T12:35:53.961Z,45.96
2023-04-15T12:36:55.786Z,46.11
2023-04-15T12:37:57.435Z,45.63
2023-04-15T12:38:59.065Z,46.51
2023-04-15T12:40:00.927Z,46.42
2023-04-15T12:41:02.651Z,45.37
2023-04-15T12:42:05.413Z,46.01
2023-04-15T12:43:07.122Z,45.51
2023-04-15T12:44:08.695Z,45.72
2023-04-15T12:45:10.638Z,45.67
2023-04-15T12:46:13.119Z,45.92
2023-04-15T12:47:14.990Z,45.58
2023-04-15T12:48:16.738Z,45.36
2023-04-15T12:49:21.409Z,45.37
2023-04-15T12:50:23.137Z,45.38
2023-04-15T12:51:24.789Z,45.42
2023-04-15T12:52:26.471Z,44.86
2023-04-15T12:53:28.619Z,44.49
2023-04-15T12:54:31.733Z,45.08
2023-04-15T12:55:33.428Z,45.24
2023-04-15T12:56:35.101Z,45.95
2023-04-15T12:57:36.898Z,45.53
2023-04-15T12:58:38.510Z,45.64
2023-04-15T12:59:40.179Z,46.19
2023-04-15T13:00:42.141Z,44.85
2023-04-15T13:01:44.647Z,45.05
2023-04-15T13:02:46.663Z,44.97
2023-04-15T13:03:48.579Z,45.32
2023-04-15T13:04:50.503Z,45.67
2023-04-15T13:05:52.843Z,46.04
2023-04-15T13:06:54.508Z,45.33
2023-04-15T13:07:56.651Z,45.77
2023-04-15T13:08:59.172Z,46.45
2023-04-15T13:10:01.228Z,45.84
2023-04-15T13:11:03.811Z,45.85
2023-04-15T13:12:05.944Z,46.30
2023-04-15T13:13:07.975Z,46.20
2023-04-15T13:14:13.687Z,46.61
2023-04-15T13:15:15.448Z,46.75
2023-04-15T13:16:17.113Z,47.25
2023-04-15T13:17:20.591Z,47.01
2023-04-15T13:18:23.635Z,47.37
2023-04-15T13:19:25.812Z,47.15
2023-04-15T13:20:28.129Z,47.09
2023-04-15T13:21:31.320Z,47.02
2023-04-15T13:22:35.520Z,47.22
2023-04-15T13:23:37.175Z,47.10
2023-04-15T13:24:41.315Z,47.20
2023-04-15T13:25:43.285Z,46.63
2023-04-15T13:26:48.588Z,46.52
2023-04-15T13:27:54.419Z,46.85
2023-04-15T13:28:56.333Z,47.03
2023-04-15T13:29:57.949Z,46.57
2023-04-15T13:31:01.966Z,46.37
2023-04-15T13:32:04.481Z,46.63
2023-04-15T13:33:09.517Z,45.65
2023-04-15T13:34:11.245Z,46.41
2023-04-15T13:35:12.901Z,46.79
2023-04-15T13:36:14.598Z,46.44
2023-04-15T13:37:16.427Z,46.00
2023-04-15T13:38:18.242Z,45.94
2023-04-15T13:39:23.335Z,46.62
2023-04-15T13:40:25.416Z,46.35
2023-04-15T13:41:27.135Z,46.12
2023-04-15T13:42:28.774Z,46.10
2023-04-15T13:43:30.626Z,46.54
2023-04-15T13:44:35.574Z,46.33